createdAt,value
2023-10-02T00:02:39.707Z,81.85
2023-10-02T00:05:11.427Z,82.34
2023-10-02T00:07:46.521Z,82.64
2023-10-02T00:10:18.096Z,82.22
2023-10-02T00:12:59.808Z,82.50
2023-10-02T00:15:28.790Z,82.51
2023-10-02T00:17:58.546Z,82.74
2023-10-02T00:20:28.099Z,82.58
2023-10-02T00:22:56.778Z,82.45
2023-10-02T00:25:29.247Z,82.47
2023-10-02T00:28:01.208Z,82.73
2023-10-02T00:30:37.515Z,82.83
2023-10-02T00:33:13.051Z,82.82
2023-10-02T00:35:52.626Z,82.77
2023-10-02T00:38:21.447Z,82.90
2023-10-02T00:40:52.173Z,82.88
2023-10-02T00:43:35.906Z,83.05
2023-10-02T00:46:05.593Z,82.88
2023-10-02T00:48:35.230Z,82.88
2023-10-02T00:51:12.953Z,83.01
2023-10-02T00:53:49.576Z,82.66
2023-10-02T00:56:22.818Z,82.89
2023-10-02T00:59:00.834Z,82.48
2023-10-02T01:01:32.393Z,82.48
2023-10-02T01:04:13.388Z,82.84
2023-10-02T01:07:07.089Z,82.64
2023-10-02T01:09:36.922Z,82.68
2023-10-02T01:12:11.939Z,82.55
2023-10-02T01:14:52.706Z,82.79
2023-10-02T01:17:23.560Z,82.89
2023-10-02T01:19:57.550Z,82.96
2023-10-02T01:22:29.060Z,82.44
2023-10-02T01:25:14.295Z,82.78
2023-10-02T01:27:48.675Z,82.59
2023-10-02T01:30:20.002Z,82.48
2023-10-02T01:33:08.582Z,82.45
2023-10-02T01:35:38.679Z,82.61
2023-10-02T01:38:14.316Z,82.87
2023-10-02T01:40:50.726Z,82.50
2023-10-02T01:43:25.640Z,82.39
2023-10-02T01:45:58.357Z,82.61
2023-10-02T01:48:41.526Z,82.79
2023-10-02T01:51:21.634Z,82.68
2023-10-02T01:53:54.311Z,82.73
2023-10-02T01:56:27.139Z,82.51
2023-10-02T01:59:09.787Z,82.83
2023-10-02T02:01:53.382Z,82.67
2023-10-02T02:04:24.418Z,82.88
2023-10-02T02:06:55.829Z,83.25
2023-10-02T02:09:26.411Z,83.54
2023-10-02T02:12:08.671Z,83.43
2023-10-02T02:14:42.942Z,83.79
2023-10-02T02:17:13.175Z,83.92
2023-10-02T02:19:50.237Z,83.66
2023-10-02T02:22:24.726Z,83.76
2023-10-02T02:24:54.509Z,83.67
2023-10-02T02:27:24.649Z,83.50
2023-10-02T02:29:58.116Z,83.70
2023-10-02T02:32:45.691Z,83.91
2023-10-02T02:35:16.908Z,84.06
2023-10-02T02:37:46.335Z,84.04
2023-10-02T02:40:27.882Z,84.51
2023-10-02T02:42:58.581Z,84.38
2023-10-02T02:45:30.323Z,84.50
2023-10-02T02:48:06.555Z,84.78
2023-10-02T02:50:37.416Z,84.83
2023-10-02T02:53:23.479Z,85.12
2023-10-02T02:56:16.488Z,85.00
2023-10-02T02:58:49.622Z,85.17
2023-10-02T03:01:23.767Z,85.40
2023-10-02T03:03:53.339Z,85.36
2023-10-02T03:06:24.544Z,85.61
2023-10-02T03:08:54.290Z,85.57
2023-10-02T03:11:30.385Z,85.38
2023-10-02T03:14:13.934Z,85.35
2023-10-02T03:16:46.344Z,85.47
2023-10-02T03:19:17.697Z,85.31
2023-10-02T03:21:48.582Z,85.13
2023-10-02T03:24:20.715Z,85.26
2023-10-02T03:26:55.020Z,85.35
2023-10-02T03:29:24.987Z,85.33
2023-10-02T03:31:54.110Z,85.51
2023-10-02T03:34:36.254Z,85.51
2023-10-02T03:37:14.848Z,85.57
2023-10-02T03:40:01.067Z,85.97
2023-10-02T03:42:33.856Z,85.48
2023-10-02T03:45:06.625Z,85.99
2023-10-02T03:47:36.340Z,85.89
2023-10-02T03:50:11.643Z,86.04
2023-10-02T03:52:42.797Z,86.33
2023-10-02T03:55:19.930Z,86.15
2023-10-02T03:57:52.567Z,86.43
2023-10-02T04:00:24.050Z,86.41
2023-10-02T04:02:55.455Z,86.75
2023-10-02T04:05:37.360Z,87.00
2023-10-02T04:08:23.593Z,87.06
2023-10-02T04:10:57.562Z,87.37
2023-10-02T04:13:30.438Z,87.46
2023-10-02T04:16:14.781Z,87.55
2023-10-02T04:18:51.235Z,87.45
2023-10-02T04:21:24.626Z,87.80
2023-10-02T04:23:54.748Z,87.88
2023-10-02T04:26:25.257Z,87.98
2023-10-02T04:29:00.520Z,87.93
2023-10-02T04:31:35.738Z,87.96
2023-10-02T04:34:17.638Z,87.95
2023-10-02T04:36:46.642Z,88.18
2023-10-02T04:39:33.904Z,88.37
2023-10-02T04:42:23.959Z,88.35
2023-10-02T04:44:58.498Z,88.54
2023-10-02T04:47:32.402Z,88.95
2023-10-02T04:50:20.056Z,88.67
2023-10-02T04:52:59.411Z,89.02
2023-10-02T04:55:33.020Z,89.00
2023-10-02T04:58:10.888Z,89.07
2023-10-02T05:01:03.522Z,89.31
2023-10-02T05:03:35.771Z,89.32
2023-10-02T05:06:05.691Z,89.27
2023-10-02T05:08:41.578Z,89.45
2023-10-02T05:11:25.634Z,89.41
2023-10-02T05:14:01.666Z,89.72
2023-10-02T05:16:35.115Z,89.66
2023-10-02T05:19:08.179Z,89.72
2023-10-02T05:21:37.844Z,89.84
2023-10-02T05:24:13.092Z,89.93
2023-10-02T05:26:45.487Z,90.16
2023-10-02T05:29:19.315Z,89.78
2023-10-02T05:31:49.058Z,89.71
2023-10-02T05:34:24.377Z,89.72
2023-10-02T05:37:13.994Z,89.87
2023-10-02T05:39:43.186Z,89.96
2023-10-02T05:42:15.265Z,89.98
2023-10-02T05:44:48.428Z,89.85
2023-10-02T05:47:17.982Z,89.81
2023-10-02T05:49:51.149Z,89.99
2023-10-02T05:52:26.756Z,90.19
2023-10-02T05:54:56.085Z,90.13
2023-10-02T05:57:32.981Z,90.17
2023-10-02T06:00:06.500Z,90.11
2023-10-02T06:02:35.599Z,90.25
2023-10-02T06:05:13.543Z,90.07
2023-10-02T06:07:42.266Z,90.41
2023-10-02T06:10:26.343Z,90.25
2023-10-02T06:13:04.990Z,90.22
2023-10-02T06:15:48.542Z,90.00
2023-10-02T06:18:26.394Z,90.14
2023-10-02T06:21:02.559Z,89.74
2023-10-02T06:23:39.227Z,89.57
2023-10-02T06:26:11.245Z,89.44
2023-10-02T06:28:43.611Z,89.53
2023-10-02T06:31:12.310Z,89.20
2023-10-02T06:33:40.803Z,88.98
2023-10-02T06:36:11.347Z,88.71
2023-10-02T06:38:41.363Z,88.95
2023-10-02T06:41:14.414Z,88.36
2023-10-02T06:43:43.537Z,88.12
2023-10-02T06:46:17.303Z,88.06
2023-10-02T06:48:48.362Z,87.99
2023-10-02T06:51:20.425Z,88.00
2023-10-02T06:53:51.170Z,87.87
2023-10-02T06:56:20.738Z,87.43
2023-10-02T06:58:53.654Z,87.91
2023-10-02T07:01:28.642Z,87.77
2023-10-02T07:04:10.708Z,87.71
2023-10-02T07:06:41.058Z,87.64
2023-10-02T07:09:19.684Z,87.06
2023-10-02T07:11:48.099Z,87.25
2023-10-02T07:14:16.919Z,86.89
2023-10-02T07:16:48.813Z,87.06
2023-10-02T07:19:28.709Z,86.78
2023-10-02T07:21:58.548Z,87.07
2023-10-02T07:24:29.698Z,86.79
2023-10-02T07:27:00.618Z,86.75
2023-10-02T07:29:40.474Z,86.65
2023-10-02T07:32:11.011Z,86.60
2023-10-02T07:34:40.602Z,86.88
2023-10-02T07:37:12.084Z,86.31
2023-10-02T07:39:40.574Z,86.43
2023-10-02T07:42:11.808Z,86.33
2023-10-02T07:44:41.864Z,86.73
2023-10-02T07:47:18.111Z,85.93
2023-10-02T07:49:50.323Z,85.33
2023-10-02T07:52:38.122Z,85.08
2023-10-02T07:55:12.172Z,85.11
2023-10-02T07:57:41.127Z,84.50
2023-10-02T08:00:31.885Z,84.56
2023-10-02T08:03:03.943Z,83.71
2023-10-02T08:05:35.967Z,83.49
2023-10-02T08:08:10.713Z,83.53
2023-10-02T08:10:51.406Z,83.08
2023-10-02T08:13:33.603Z,82.52
2023-10-02T08:16:13.258Z,82.52
2023-10-02T08:18:55.883Z,82.17
2023-10-02T08:21:35.620Z,81.92
2023-10-02T08:24:07.039Z,81.74
2023-10-02T08:26:41.762Z,81.40
2023-10-02T08:29:12.106Z,81.60
2023-10-02T08:31:44.707Z,81.30
2023-10-02T08:34:15.829Z,81.05
2023-10-02T08:36:44.985Z,81.13
2023-10-02T08:39:23.277Z,80.84
2023-10-02T08:41:52.993Z,80.50
2023-10-02T08:44:24.092Z,80.23
2023-10-02T08:46:56.784Z,80.18
2023-10-02T08:49:27.577Z,80.09
2023-10-02T08:51:57.860Z,79.75
2023-10-02T08:54:30.042Z,79.27
2023-10-02T08:57:08.282Z,78.82
2023-10-02T08:59:43.927Z,78.81
2023-10-02T09:02:17.747Z,78.76
2023-10-02T09:05:11.707Z,78.06
2023-10-02T09:08:02.735Z,77.27
2023-10-02T09:10:36.458Z,76.92
2023-10-02T09:13:16.094Z,76.79
2023-10-02T09:15:50.835Z,76.66
2023-10-02T09:18:36.637Z,76.72
2023-10-02T09:21:16.933Z,76.80
2023-10-02T09:23:53.188Z,76.93
2023-10-02T09:26:26.450Z,76.96
2023-10-02T09:29:02.984Z,76.94
2023-10-02T09:31:36.214Z,76.44
2023-10-02T09:34:44.431Z,76.17
2023-10-02T09:38:05.086Z,75.96
2023-10-02T09:40:15.195Z,75.81
2023-10-02T09:42:49.829Z,75.44
2023-10-02T09:45:32.962Z,75.16
2023-10-02T09:48:07.356Z,74.42
2023-10-02T09:50:47.875Z,74.26
2023-10-02T09:53:18.771Z,73.24
2023-10-02T09:56:10.619Z,73.23
2023-10-02T09:58:50.724Z,72.40
2023-10-02T10:01:36.562Z,72.74
2023-10-02T10:04:25.607Z,72.23
2023-10-02T10:07:28.253Z,72.05
2023-10-02T10:10:29.368Z,72.59
2023-10-02T10:12:59.721Z,72.32
2023-10-02T10:15:33.124Z,72.33
2023-10-02T10:18:04.740Z,72.97
2023-10-02T10:20:32.479Z,72.41
2023-10-02T10:23:24.961Z,71.86
2023-10-02T10:25:54.861Z,72.13
2023-10-02T10:28:30.595Z,71.87
2023-10-02T10:31:10.297Z,71.12
2023-10-02T10:33:42.871Z,71.32
2023-10-02T10:36:38.703Z,71.09
2023-10-02T10:39:44.732Z,70.40
2023-10-02T10:42:12.353Z,70.27
2023-10-02T10:44:44.719Z,70.64
2023-10-02T10:47:15.880Z,70.45
2023-10-02T10:49:55.667Z,70.54
2023-10-02T10:52:36.204Z,70.18
2023-10-02T10:55:33.656Z,69.95
2023-10-02T10:58:06.917Z,70.14
2023-10-02T11:00:43.412Z,69.57
2023-10-02T11:03:16.333Z,70.13
2023-10-02T11:05:45.644Z,69.27
2023-10-02T11:08:30.112Z,69.50
2023-10-02T11:11:12.715Z,69.66
2023-10-02T11:13:54.148Z,69.59
2023-10-02T11:16:36.414Z,70.19
2023-10-02T11:19:31.702Z,69.90
2023-10-02T11:22:18.252Z,68.85
2023-10-02T11:24:50.887Z,68.87
2023-10-02T11:27:19.651Z,68.08
2023-10-02T11:30:04.812Z,67.47
2023-10-02T11:32:52.021Z,67.26
2023-10-02T11:35:22.616Z,67.66
2023-10-02T11:37:52.151Z,67.25
2023-10-02T11:40:25.635Z,67.27
2023-10-02T11:42:54.809Z,66.63
2023-10-02T11:45:23.308Z,66.54
2023-10-02T11:47:52.637Z,66.38
2023-10-02T11:50:23.067Z,66.70
2023-10-02T11:52:52.004Z,66.46
2023-10-02T11:55:20.526Z,66.50
2023-10-02T11:57:52.855Z,66.47
2023-10-02T12:00:23.712Z,66.17
2023-10-02T12:02:52.819Z,65.59
2023-10-02T12:05:24.166Z,65.73
2023-10-02T12:07:52.942Z,65.19
2023-10-02T12:10:22.005Z,65.05
2023-10-02T12:12:50.596Z,65.14
2023-10-02T12:15:20.776Z,65.07
2023-10-02T12:17:49.928Z,64.83
2023-10-02T12:20:24.492Z,64.77
2023-10-02T12:22:54.947Z,64.36
2023-10-02T12:25:23.606Z,64.76
2023-10-02T12:27:53.597Z,65.37
2023-10-02T12:30:22.199Z,64.73
2023-10-02T12:32:51.743Z,63.78
2023-10-02T12:35:20.971Z,64.22
2023-10-02T12:37:51.825Z,63.53
2023-10-02T12:40:23.236Z,62.26
2023-10-02T12:42:51.843Z,61.66
2023-10-02T12:45:20.380Z,61.50
2023-10-02T12:47:49.164Z,61.73
2023-10-02T12:50:19.824Z,61.18
2023-10-02T12:52:48.244Z,61.21
2023-10-02T12:55:18.194Z,61.54
2023-10-02T12:57:48.108Z,61.15
2023-10-02T13:00:19.608Z,61.27
2023-10-02T13:02:49.665Z,61.64
2023-10-02T13:05:21.118Z,61.58
2023-10-02T13:07:52.021Z,61.94
2023-10-02T13:10:20.510Z,62.17
2023-10-02T13:12:50.719Z,61.97
2023-10-02T13:15:20.373Z,61.36
2023-10-02T13:17:49.529Z,61.88
2023-10-02T13:20:18.163Z,62.12
2023-10-02T13:22:48.159Z,61.46
2023-10-02T13:25:17.055Z,61.57
2023-10-02T13:27:45.694Z,61.75
2023-10-02T13:30:20.148Z,62.20
2023-10-02T13:32:48.730Z,62.71
2023-10-02T13:35:17.522Z,62.85
2023-10-02T13:37:46.280Z,63.30
2023-10-02T13:40:32.816Z,63.50
2023-10-02T13:43:01.852Z,63.59
2023-10-02T13:45:31.784Z,63.49
2023-10-02T13:48:00.468Z,63.42
2023-10-02T13:50:29.918Z,63.53
2023-10-02T13:53:00.505Z,63.95
2023-10-02T13:55:29.248Z,63.96
2023-10-02T13:57:58.543Z,63.66
2023-10-02T14:00:27.854Z,64.36
2023-10-02T14:02:58.034Z,64.00
2023-10-02T14:05:30.757Z,64.08
2023-10-02T14:07:59.714Z,64.32
2023-10-02T14:10:30.837Z,64.44
2023-10-02T14:12:59.349Z,64.40
2023-10-02T14:15:28.597Z,63.86
2023-10-02T14:17:58.707Z,63.64
2023-10-02T14:20:28.221Z,63.56
2023-10-02T14:22:57.059Z,63.43
2023-10-02T14:25:25.947Z,63.28
2023-10-02T14:27:54.826Z,62.97
2023-10-02T14:30:24.150Z,63.17
2023-10-02T14:32:54.083Z,63.51
2023-10-02T14:35:42.994Z,63.14
2023-10-02T14:38:15.990Z,63.60
2023-10-02T14:40:46.290Z,63.81
2023-10-02T14:43:15.730Z,64.05
2023-10-02T14:45:46.901Z,63.80
2023-10-02T14:48:36.026Z,64.01
2023-10-02T14:51:10.919Z,64.49
2023-10-02T14:53:40.036Z,64.79
2023-10-02T14:56:08.482Z,64.61
2023-10-02T14:58:42.362Z,63.84
2023-10-02T15:01:14.213Z,64.12
2023-10-02T15:03:43.819Z,63.88
2023-10-02T15:06:14.075Z,63.76
2023-10-02T15:08:43.096Z,63.69
2023-10-02T15:11:15.682Z,63.27
2023-10-02T15:13:46.511Z,63.88
2023-10-02T15:16:17.017Z,63.73
2023-10-02T15:18:47.492Z,63.73
2023-10-02T15:21:20.446Z,64.04
2023-10-02T15:23:49.635Z,64.38
2023-10-02T15:26:19.358Z,64.99
2023-10-02T15:28:51.476Z,64.78
2023-10-02T15:31:21.455Z,65.06
2023-10-02T15:33:50.061Z,65.06
2023-10-02T15:36:19.993Z,65.32
2023-10-02T15:38:49.462Z,65.74
2023-10-02T15:41:31.981Z,65.81
2023-10-02T15:44:01.244Z,65.49
2023-10-02T15:46:30.045Z,65.62
2023-10-02T15:48:59.157Z,65.55
2023-10-02T15:51:29.378Z,65.75
2023-10-02T15:53:57.858Z,66.20
2023-10-02T15:56:28.828Z,66.18
2023-10-02T15:58:57.789Z,65.96
2023-10-02T16:01:26.844Z,66.38
2023-10-02T16:03:55.357Z,66.76
2023-10-02T16:06:25.316Z,67.10
2023-10-02T16:08:55.772Z,67.05
2023-10-02T16:11:24.873Z,67.42
2023-10-02T16:13:53.805Z,67.64
2023-10-02T16:16:24.632Z,68.20
2023-10-02T16:18:53.460Z,68.43
2023-10-02T16:21:23.592Z,68.38
2023-10-02T16:23:54.213Z,68.75
2023-10-02T16:26:25.445Z,68.88
2023-10-02T16:28:54.065Z,68.80
2023-10-02T16:31:26.768Z,69.01
2023-10-02T16:33:55.653Z,69.57
2023-10-02T16:36:26.523Z,69.37
2023-10-02T16:39:05.593Z,70.19
2023-10-02T16:41:36.912Z,69.83
2023-10-02T16:44:06.694Z,70.88
2023-10-02T16:46:36.835Z,70.74
2023-10-02T16:49:06.293Z,71.03
2023-10-02T16:51:35.004Z,71.52
2023-10-02T16:54:05.232Z,72.20
2023-10-02T16:56:33.851Z,72.68
2023-10-02T16:59:03.441Z,73.28
2023-10-02T17:01:32.154Z,73.71
2023-10-02T17:04:00.665Z,73.82
2023-10-02T17:06:29.220Z,74.43
2023-10-02T17:08:57.648Z,74.87
2023-10-02T17:11:29.207Z,75.52
2023-10-02T17:13:57.809Z,75.38
2023-10-02T17:16:26.314Z,75.71
2023-10-02T17:18:54.822Z,75.49
2023-10-02T17:21:30.764Z,76.15
2023-10-02T17:24:00.023Z,76.07
2023-10-02T17:26:32.461Z,76.25
2023-10-02T17:29:03.766Z,76.21
2023-10-02T17:31:32.511Z,76.74
2023-10-02T17:34:01.174Z,76.84
2023-10-02T17:36:30.590Z,76.87
2023-10-02T17:39:00.179Z,77.09
2023-10-02T17:41:30.496Z,77.22
2023-10-02T17:43:58.991Z,77.14
2023-10-02T17:46:27.480Z,77.36
2023-10-02T17:48:55.941Z,77.94
2023-10-02T17:51:25.985Z,78.10
2023-10-02T17:53:55.089Z,78.15
2023-10-02T17:56:23.599Z,78.34
2023-10-02T17:58:53.538Z,78.64
2023-10-02T18:01:21.989Z,78.73
2023-10-02T18:03:50.692Z,78.90
2023-10-02T18:06:20.845Z,78.82
2023-10-02T18:08:49.282Z,79.25
2023-10-02T18:11:17.714Z,79.63
2023-10-02T18:13:46.169Z,79.34
2023-10-02T18:16:19.662Z,79.08
2023-10-02T18:18:48.126Z,79.13
2023-10-02T18:21:17.336Z,79.02
2023-10-02T18:23:46.230Z,79.20
2023-10-02T18:26:14.788Z,79.50
2023-10-02T18:28:45.010Z,79.64
2023-10-02T18:31:13.935Z,79.53
2023-10-02T18:33:43.964Z,79.86
2023-10-02T18:36:12.540Z,79.92
2023-10-02T18:38:41.116Z,79.94
2023-10-02T18:41:11.842Z,79.81
2023-10-02T18:43:40.504Z,79.94
2023-10-02T18:46:09.466Z,80.01
2023-10-02T18:48:38.651Z,80.11
2023-10-02T18:51:17.594Z,79.97
2023-10-02T18:53:46.164Z,80.43
2023-10-02T18:56:14.854Z,80.36
2023-10-02T18:58:43.458Z,80.50
2023-10-02T19:01:15.541Z,80.91
2023-10-02T19:03:44.941Z,80.92
2023-10-02T19:06:19.566Z,81.09
2023-10-02T19:08:48.457Z,81.17
2023-10-02T19:11:17.735Z,81.49
2023-10-02T19:13:48.421Z,81.62
2023-10-02T19:16:18.402Z,81.98
2023-10-02T19:18:47.823Z,81.94
2023-10-02T19:21:17.684Z,82.20
2023-10-02T19:23:46.208Z,82.34
2023-10-02T19:26:14.777Z,82.49
2023-10-02T19:28:43.844Z,82.73
2023-10-02T19:31:12.826Z,83.24
2023-10-02T19:33:41.480Z,83.17
2023-10-02T19:36:09.977Z,83.12
2023-10-02T19:38:39.920Z,83.32
2023-10-02T19:41:16.103Z,82.97
2023-10-02T19:43:45.211Z,83.48
2023-10-02T19:46:15.682Z,83.54
2023-10-02T19:48:44.609Z,83.84
2023-10-02T19:51:14.822Z,84.49
2023-10-02T19:53:45.764Z,84.54
2023-10-02T19:56:15.323Z,84.78
2023-10-02T19:58:44.319Z,85.33
2023-10-02T20:01:12.886Z,85.41
2023-10-02T20:03:41.457Z,85.81
2023-10-02T20:06:12.010Z,85.84
2023-10-02T20:08:42.281Z,86.24
2023-10-02T20:11:12.778Z,86.16
2023-10-02T20:13:41.326Z,86.46
2023-10-02T20:16:09.980Z,86.72
2023-10-02T20:18:38.776Z,86.91
2023-10-02T20:21:07.448Z,87.09
2023-10-02T20:23:51.467Z,87.05
2023-10-02T20:26:22.322Z,87.40
2023-10-02T20:28:51.029Z,87.82
2023-10-02T20:31:19.528Z,88.06
2023-10-02T20:33:48.061Z,87.95
2023-10-02T20:36:16.559Z,88.07
2023-10-02T20:38:45.189Z,88.66
2023-10-02T20:41:13.673Z,88.39
2023-10-02T20:43:43.638Z,88.87
2023-10-02T20:46:15.639Z,88.72
2023-10-02T20:48:44.410Z,88.88
2023-10-02T20:51:15.227Z,89.35
2023-10-02T20:53:44.943Z,89.56
2023-10-02T20:56:13.563Z,89.39
2023-10-02T20:58:43.585Z,89.53
2023-10-02T21:01:14.184Z,89.98
2023-10-02T21:03:42.956Z,90.01
2023-10-02T21:06:11.493Z,90.05
2023-10-02T21:08:40.281Z,90.17
2023-10-02T21:11:08.820Z,90.55
2023-10-02T21:13:37.396Z,90.60
2023-10-02T21:16:07.506Z,90.46
2023-10-02T21:18:36.238Z,90.43
2023-10-02T21:21:05.324Z,90.72
2023-10-02T21:23:34.657Z,90.68
2023-10-02T21:26:05.531Z,90.71
2023-10-02T21:28:34.245Z,90.65
2023-10-02T21:31:04.623Z,90.83
2023-10-02T21:33:34.911Z,90.83
2023-10-02T21:36:06.082Z,90.91
2023-10-02T21:38:35.567Z,90.89
2023-10-02T21:41:13.052Z,90.79
2023-10-02T21:43:42.133Z,90.71
2023-10-02T21:46:11.799Z,90.96
2023-10-02T21:48:43.212Z,90.70
2023-10-02T21:51:13.223Z,90.70
2023-10-02T21:53:41.847Z,90.74
2023-10-02T21:56:17.125Z,90.59
2023-10-02T21:58:50.193Z,90.99
2023-10-02T22:01:19.211Z,90.86
2023-10-02T22:03:53.979Z,90.93
2023-10-02T22:06:23.030Z,90.75
2023-10-02T22:08:53.029Z,90.81
2023-10-02T22:11:22.585Z,91.23
2023-10-02T22:13:52.125Z,90.88
2023-10-02T22:16:20.774Z,91.16
2023-10-02T22:18:52.101Z,90.88
2023-10-02T22:21:24.652Z,91.27
2023-10-02T22:23:54.509Z,90.71
2023-10-02T22:26:23.543Z,90.76
2023-10-02T22:28:52.629Z,90.95
2023-10-02T22:31:21.821Z,90.85
2023-10-02T22:33:51.960Z,90.94
2023-10-02T22:36:20.897Z,90.83
2023-10-02T22:38:49.433Z,90.72
2023-10-02T22:41:17.896Z,90.85
2023-10-02T22:43:47.281Z,90.79
2023-10-02T22:46:16.020Z,91.13
2023-10-02T22:48:44.670Z,91.24
2023-10-02T22:51:19.702Z,91.07
2023-10-02T22:53:49.479Z,91.08
2023-10-02T22:56:19.105Z,91.02
2023-10-02T22:58:49.695Z,91.36
2023-10-02T23:01:18.359Z,91.10
2023-10-02T23:03:46.969Z,91.01
2023-10-02T23:06:16.979Z,90.97
2023-10-02T23:08:45.713Z,91.44
2023-10-02T23:11:15.211Z,90.96
2023-10-02T23:13:43.883Z,91.03
2023-10-02T23:16:13.593Z,91.27
2023-10-02T23:18:42.154Z,91.18
2023-10-02T23:21:10.637Z,91.34
2023-10-02T23:23:40.941Z,91.23
2023-10-02T23:26:18.039Z,90.98
2023-10-02T23:28:47.744Z,91.71
2023-10-02T23:31:16.512Z,91.31
2023-10-02T23:33:45.067Z,91.54
2023-10-02T23:36:14.626Z,91.32
2023-10-02T23:38:44.873Z,91.09
2023-10-02T23:41:16.210Z,91.44
2023-10-02T23:43:46.288Z,90.89
2023-10-02T23:46:15.834Z,91.01
2023-10-02T23:48:44.934Z,91.10
2023-10-02T23:51:14.566Z,91.11
2023-10-02T23:53:45.375Z,91.27
2023-10-02T23:56:15.808Z,90.88
2023-10-02T23:58:44.906Z,90.95
